FlightSource - Aviation Photo Database

World Wide Airport Lookup


Search by ICAO
Or
Search by City

FlightSource.ca - Aviation Photo Database - Lone Star Executive Airport Information
Airport Identification
Name: Lone Star Executive Airport
ICAO: KCXO
IATA:
Airport Location
City: Houston
Region: TX
Country: United States
Continent: North America
Latitude: 30.3518
Longitude: -95.4145
Airport Information
Type: Medium Airport
Elevation: 245 Feet ASL
Flight Status: KCXO
More Info: KCXO
Airport Weather    
Metar: KCXO 250953Z AUTO 00000KT 10SM CLR 14/12 A2969 RMK AO2 SLP050 T01390122
TAF:


Advertisement